Time;durP1;ratioP1;P1;durP2;ratioP2;P2;SDS_P1;SDS_P2;PMS_P1;PMS_P2;Temp;Humidity;BMP_temperature;BMP_pressure;BME280_temperature;BME280_humidity;BME280_pressure;Samples;Min_cycle;Max_cycle;Signal;HPM_P1;HPM_P2
2021/03/31 00:01:32;;;;;;;;;;;18.50;58.90;;;;;;5049124;28;20275;-75
2021/03/31 00:03:58;;;;;;;;;;;18.50;58.90;;;;;;5044036;28;19913;-75
2021/03/31 00:06:24;;;;;;;;;;;18.50;58.90;;;;;;5041684;28;20286;-75
2021/03/31 00:08:49;;;;;;;;;;;18.50;59.00;;;;;;5025917;28;19913;-75
2021/03/31 00:11:15;;;;;;;;;;;18.50;59.00;;;;;;5048694;28;20331;-75
2021/03/31 00:13:41;;;;;;;;;;;18.50;59.00;;;;;;5022672;28;19924;-75
2021/03/31 00:16:06;;;;;;;;;;;18.50;59.00;;;;;;5034011;28;20863;-75
2021/03/31 00:18:32;;;;;;;;;;;18.50;59.00;;;;;;5052326;28;19920;-76
2021/03/31 00:20:58;;;;;;;;;;;18.50;59.00;;;;;;5037851;28;19967;-75
2021/03/31 00:23:25;;;;;;;;;;;18.50;59.00;;;;;;5033730;28;19913;-75
2021/03/31 00:25:51;;;;;;;;;;;18.50;59.00;;;;;;5050906;28;19917;-75
2021/03/31 00:28:17;;;;;;;;;;;18.50;59.00;;;;;;5039965;28;19912;-77
2021/03/31 00:30:42;;;;;;;;;;;18.40;59.00;;;;;;5046398;28;19923;-76
2021/03/31 00:33:08;;;;;;;;;;;18.40;59.00;;;;;;5047651;28;19920;-75
2021/03/31 00:35:34;;;;;;;;;;;18.40;59.10;;;;;;5035951;28;19962;-75
2021/03/31 00:38:00;;;;;;;;;;;18.40;59.10;;;;;;5034296;28;19925;-75
2021/03/31 00:40:27;;;;;;;;;;;18.40;59.10;;;;;;5021502;28;19921;-75
2021/03/31 00:42:53;;;;;;;;;;;18.50;59.10;;;;;;5053572;28;19921;-75
2021/03/31 00:45:18;;;;;;;;;;;18.40;59.10;;;;;;5036798;28;20077;-77
2021/03/31 00:47:44;;;;;;;;;;;18.50;59.10;;;;;;5033252;28;19920;-75
2021/03/31 00:50:11;;;;;;;;;;;18.40;59.10;;;;;;5020221;28;20323;-75
2021/03/31 00:52:37;;;;;;;;;;;18.40;59.10;;;;;;5041915;28;20359;-74
2021/03/31 00:55:03;;;;;;;;;;;18.40;59.10;;;;;;5031900;28;19917;-76
2021/03/31 00:57:28;;;;;;;;;;;18.40;59.10;;;;;;5048471;28;19924;-74
2021/03/31 00:59:54;;;;;;;;;;;18.40;59.10;;;;;;5022291;28;19913;-76
2021/03/31 01:02:19;;;;;;;;;;;18.40;59.10;;;;;;5044820;28;19913;-75
2021/03/31 01:04:45;;;;;;;;;;;18.40;59.20;;;;;;5032941;28;20366;-74
2021/03/31 01:07:10;;;;;;;;;;;18.40;59.20;;;;;;5041903;28;19913;-75
2021/03/31 01:09:36;;;;;;;;;;;18.40;59.20;;;;;;5046771;28;19923;-75
2021/03/31 01:12:08;;;;;;;;;;;18.40;59.20;;;;;;5024962;28;20558;-76
2021/03/31 01:14:49;;;;;;;;;;;18.40;59.20;;;;;;5017150;28;19916;-75
2021/03/31 01:17:19;;;;;;;;;;;18.40;59.20;;;;;;5018226;28;20275;-75
2021/03/31 01:19:45;;;;;;;;;;;18.40;59.20;;;;;;5032834;28;19917;-76
2021/03/31 01:22:24;;;;;;;;;;;18.40;59.20;;;;;;5038544;28;19913;-75
2021/03/31 01:25:08;;;;;;;;;;;18.40;59.20;;;;;;5052964;28;19913;-76
2021/03/31 01:27:34;;;;;;;;;;;18.40;59.20;;;;;;5054908;28;19920;-75
2021/03/31 01:29:59;;;;;;;;;;;18.40;59.20;;;;;;5043417;28;19913;-74
2021/03/31 01:32:34;;;;;;;;;;;18.40;59.20;;;;;;5048419;28;19931;-75
2021/03/31 01:35:05;;;;;;;;;;;18.40;59.20;;;;;;5058660;28;19963;-75
2021/03/31 01:37:31;;;;;;;;;;;18.40;59.20;;;;;;5036598;28;19917;-77
2021/03/31 01:39:57;;;;;;;;;;;18.40;59.20;;;;;;5031714;28;19921;-75
2021/03/31 01:42:23;;;;;;;;;;;18.40;59.20;;;;;;5033843;28;19920;-75
2021/03/31 01:44:52;;;;;;;;;;;18.40;59.20;;;;;;5030475;28;19923;-75
2021/03/31 01:47:18;;;;;;;;;;;18.40;59.30;;;;;;5051279;28;20312;-75
2021/03/31 01:49:44;;;;;;;;;;;18.40;59.30;;;;;;5034530;28;19912;-75
2021/03/31 01:52:11;;;;;;;;;;;18.30;59.30;;;;;;5053912;28;20393;-75
2021/03/31 01:54:39;;;;;;;;;;;18.40;59.30;;;;;;5049932;28;19961;-75
2021/03/31 01:57:05;;;;;;;;;;;18.40;59.30;;;;;;5033860;28;19920;-75
2021/03/31 01:59:31;;;;;;;;;;;18.40;59.30;;;;;;5026528;28;19920;-75
2021/03/31 02:01:58;;;;;;;;;;;18.40;59.30;;;;;;5050492;28;19959;-75
2021/03/31 02:04:24;;;;;;;;;;;18.40;59.30;;;;;;5030954;28;19921;-75
2021/03/31 02:06:51;;;;;;;;;;;18.40;59.30;;;;;;5041661;28;19913;-75
2021/03/31 02:09:18;;;;;;;;;;;18.40;59.40;;;;;;5038769;28;20276;-75
2021/03/31 02:11:44;;;;;;;;;;;18.40;59.30;;;;;;5032025;28;19917;-75
2021/03/31 02:14:11;;;;;;;;;;;18.30;59.30;;;;;;5051286;28;19924;-75
2021/03/31 02:16:37;;;;;;;;;;;18.30;59.30;;;;;;5034287;28;19952;-75
2021/03/31 02:19:02;;;;;;;;;;;18.30;59.40;;;;;;5033414;28;21400;-75
2021/03/31 02:21:29;;;;;;;;;;;18.30;59.40;;;;;;5048381;28;20409;-75
2021/03/31 02:23:55;;;;;;;;;;;18.40;59.40;;;;;;5044061;28;20016;-75
2021/03/31 02:26:23;;;;;;;;;;;18.30;59.40;;;;;;5028854;28;20278;-75
2021/03/31 02:28:48;;;;;;;;;;;18.30;59.40;;;;;;5035876;28;20416;-74
2021/03/31 02:31:17;;;;;;;;;;;18.40;59.40;;;;;;5053301;28;19913;-75
2021/03/31 02:33:44;;;;;;;;;;;18.30;59.40;;;;;;5036691;28;19924;-75
2021/03/31 02:36:11;;;;;;;;;;;18.30;59.40;;;;;;5042887;28;20016;-75
2021/03/31 02:38:37;;;;;;;;;;;18.30;59.40;;;;;;5046523;28;19921;-75
2021/03/31 02:41:04;;;;;;;;;;;18.30;59.40;;;;;;5036798;28;19936;-76
2021/03/31 02:43:30;;;;;;;;;;;18.30;59.40;;;;;;5055785;28;19921;-75
2021/03/31 02:45:55;;;;;;;;;;;18.30;59.40;;;;;;5035818;28;19916;-75
2021/03/31 02:48:22;;;;;;;;;;;18.30;59.40;;;;;;5036535;28;19996;-75
2021/03/31 02:50:48;;;;;;;;;;;18.30;59.40;;;;;;5043481;28;19913;-75
2021/03/31 02:53:14;;;;;;;;;;;18.30;59.40;;;;;;5044652;28;20047;-75
2021/03/31 02:55:39;;;;;;;;;;;18.30;59.50;;;;;;5053544;28;19952;-75
2021/03/31 02:58:06;;;;;;;;;;;18.30;59.50;;;;;;5051185;28;19959;-75
2021/03/31 03:00:32;;;;;;;;;;;18.30;59.50;;;;;;5050655;28;19928;-75
2021/03/31 03:02:58;;;;;;;;;;;18.30;59.50;;;;;;5042061;28;19915;-74
2021/03/31 03:05:24;;;;;;;;;;;18.30;59.50;;;;;;5032497;28;19920;-75
2021/03/31 03:07:49;;;;;;;;;;;18.30;59.50;;;;;;5045468;28;19913;-75
2021/03/31 03:10:15;;;;;;;;;;;18.30;59.50;;;;;;5044375;28;19917;-75
2021/03/31 03:12:44;;;;;;;;;;;18.30;59.50;;;;;;5021930;28;19913;-76
2021/03/31 03:15:11;;;;;;;;;;;18.30;59.50;;;;;;5020742;28;20236;-75
2021/03/31 03:17:36;;;;;;;;;;;18.30;59.50;;;;;;5049861;28;19952;-75
2021/03/31 03:20:03;;;;;;;;;;;18.30;59.50;;;;;;5048837;28;20014;-75
2021/03/31 03:22:29;;;;;;;;;;;18.30;59.50;;;;;;5034487;28;19914;-74
2021/03/31 03:24:56;;;;;;;;;;;18.30;59.50;;;;;;5041937;28;19921;-75
2021/03/31 03:27:21;;;;;;;;;;;18.30;59.50;;;;;;5030782;28;19913;-76
2021/03/31 03:29:48;;;;;;;;;;;18.30;59.60;;;;;;5053511;28;20007;-75
2021/03/31 03:32:14;;;;;;;;;;;18.30;59.50;;;;;;5044668;28;20316;-75
2021/03/31 03:34:40;;;;;;;;;;;18.30;59.50;;;;;;5028449;28;20012;-75
2021/03/31 03:37:06;;;;;;;;;;;18.30;59.60;;;;;;5043049;28;19952;-75
2021/03/31 03:39:31;;;;;;;;;;;18.30;59.50;;;;;;5035813;28;19951;-77
2021/03/31 03:41:57;;;;;;;;;;;18.30;59.60;;;;;;5029224;28;19921;-75
2021/03/31 03:44:22;;;;;;;;;;;18.30;59.60;;;;;;5030184;28;19913;-75
2021/03/31 03:46:48;;;;;;;;;;;18.30;59.60;;;;;;5022700;28;19917;-75
2021/03/31 03:49:14;;;;;;;;;;;18.30;59.60;;;;;;5030961;28;19944;-75
2021/03/31 03:51:40;;;;;;;;;;;18.30;59.60;;;;;;5023727;28;19971;-76
2021/03/31 03:54:09;;;;;;;;;;;18.30;59.60;;;;;;5023319;28;19922;-75
2021/03/31 03:56:35;;;;;;;;;;;18.30;59.60;;;;;;5027152;28;19917;-75
2021/03/31 03:59:20;;;;;;;;;;;18.30;59.60;;;;;;5032980;28;19913;-75
2021/03/31 04:01:46;;;;;;;;;;;18.30;59.60;;;;;;5025092;28;19917;-75
2021/03/31 04:04:11;;;;;;;;;;;18.30;59.60;;;;;;5026023;28;20007;-76
2021/03/31 04:06:37;;;;;;;;;;;18.30;59.60;;;;;;5022996;28;20381;-75
2021/03/31 04:09:03;;;;;;;;;;;18.30;59.60;;;;;;5019950;28;20008;-75
2021/03/31 04:11:29;;;;;;;;;;;18.30;59.60;;;;;;5027908;28;19920;-75
2021/03/31 04:13:55;;;;;;;;;;;18.30;59.70;;;;;;5022279;28;20276;-76
2021/03/31 04:16:21;;;;;;;;;;;18.30;59.70;;;;;;5028415;28;20405;-75
2021/03/31 04:18:47;;;;;;;;;;;18.30;59.70;;;;;;5033846;28;19914;-76
2021/03/31 04:21:13;;;;;;;;;;;18.30;59.70;;;;;;5025336;28;19913;-75
2021/03/31 04:23:38;;;;;;;;;;;18.30;59.70;;;;;;5025942;28;19920;-75
2021/03/31 04:26:04;;;;;;;;;;;18.30;59.70;;;;;;5028016;28;19936;-75
2021/03/31 04:28:29;;;;;;;;;;;18.30;59.70;;;;;;5019888;28;20340;-75
2021/03/31 04:30:56;;;;;;;;;;;18.30;59.70;;;;;;5021925;28;19917;-75
2021/03/31 04:33:24;;;;;;;;;;;18.30;59.70;;;;;;5029279;28;20039;-75
2021/03/31 04:35:52;;;;;;;;;;;18.30;59.70;;;;;;5021359;28;19924;-75
2021/03/31 04:38:17;;;;;;;;;;;18.30;59.70;;;;;;5029060;28;19921;-77
2021/03/31 04:41:02;;;;;;;;;;;18.30;59.70;;;;;;5027187;28;19913;-75
2021/03/31 04:43:32;;;;;;;;;;;18.30;59.70;;;;;;5049902;28;19913;-75
2021/03/31 04:46:02;;;;;;;;;;;18.30;59.70;;;;;;5041717;28;19912;-75
2021/03/31 04:48:28;;;;;;;;;;;18.30;59.70;;;;;;5031411;28;19929;-74
2021/03/31 04:50:53;;;;;;;;;;;18.30;59.70;;;;;;5067538;28;20278;-75
2021/03/31 04:53:19;;;;;;;;;;;18.30;59.70;;;;;;5045104;28;19913;-75
2021/03/31 04:55:45;;;;;;;;;;;18.20;59.70;;;;;;5043335;28;20013;-76
2021/03/31 04:58:10;;;;;;;;;;;18.30;59.80;;;;;;5034638;28;19944;-75
2021/03/31 05:00:36;;;;;;;;;;;18.20;59.70;;;;;;5043840;28;19924;-75
2021/03/31 05:03:02;;;;;;;;;;;18.30;59.70;;;;;;5047493;28;19913;-75
2021/03/31 05:05:27;;;;;;;;;;;18.30;59.70;;;;;;5026599;28;19913;-75
2021/03/31 05:07:53;;;;;;;;;;;18.30;59.80;;;;;;5045650;28;19958;-75
2021/03/31 05:10:18;;;;;;;;;;;18.20;59.70;;;;;;5034818;28;19967;-76
2021/03/31 05:12:44;;;;;;;;;;;18.30;59.70;;;;;;5052493;28;20350;-75
2021/03/31 05:15:10;;;;;;;;;;;18.20;59.70;;;;;;5035755;28;20359;-76
2021/03/31 05:17:35;;;;;;;;;;;18.20;59.70;;;;;;5019022;28;19928;-75
2021/03/31 05:20:02;;;;;;;;;;;18.30;59.70;;;;;;5050511;28;20051;-75
2021/03/31 05:22:28;;;;;;;;;;;18.30;59.70;;;;;;5050671;28;20286;-75
2021/03/31 05:24:54;;;;;;;;;;;18.30;59.70;;;;;;5029460;28;19921;-75
2021/03/31 05:27:20;;;;;;;;;;;18.30;59.70;;;;;;5052642;28;19999;-75
2021/03/31 05:29:45;;;;;;;;;;;18.30;59.70;;;;;;5031204;28;20005;-75
2021/03/31 05:32:13;;;;;;;;;;;18.30;59.70;;;;;;5048675;28;19936;-75
2021/03/31 05:34:39;;;;;;;;;;;18.30;59.70;;;;;;5025862;28;19920;-75
2021/03/31 05:37:06;;;;;;;;;;;18.30;59.70;;;;;;5035970;28;19939;-76
2021/03/31 05:39:32;;;;;;;;;;;18.30;59.70;;;;;;5044325;28;19913;-76
2021/03/31 05:41:58;;;;;;;;;;;18.30;59.70;;;;;;5031054;28;19921;-76
2021/03/31 05:44:23;;;;;;;;;;;18.30;59.60;;;;;;5030603;28;19919;-76
2021/03/31 05:46:50;;;;;;;;;;;18.30;59.60;;;;;;5025099;28;20011;-76
2021/03/31 05:49:16;;;;;;;;;;;18.30;59.60;;;;;;5028467;28;20362;-77
2021/03/31 05:51:42;;;;;;;;;;;18.30;59.60;;;;;;5031145;28;20410;-77
2021/03/31 05:54:08;;;;;;;;;;;18.30;59.60;;;;;;5027816;28;20286;-76
2021/03/31 05:56:34;;;;;;;;;;;18.30;59.60;;;;;;5046831;28;20322;-76
2021/03/31 05:59:06;;;;;;;;;;;18.30;59.60;;;;;;5029698;28;19912;-76
2021/03/31 06:01:32;;;;;;;;;;;18.30;59.60;;;;;;5037219;28;20274;-77
2021/03/31 06:03:58;;;;;;;;;;;18.30;59.60;;;;;;5037419;28;19974;-77
2021/03/31 06:06:24;;;;;;;;;;;18.30;59.60;;;;;;5047552;28;19914;-79
2021/03/31 06:08:50;;;;;;;;;;;18.30;59.50;;;;;;5048840;28;20370;-77
2021/03/31 06:11:18;;;;;;;;;;;18.30;59.50;;;;;;5038106;28;19916;-77
2021/03/31 06:13:51;;;;;;;;;;;18.30;59.50;;;;;;5035879;28;20366;-75
2021/03/31 06:16:27;;;;;;;;;;;18.30;59.50;;;;;;5039648;28;19924;-77
2021/03/31 06:18:53;;;;;;;;;;;18.30;59.50;;;;;;5047381;28;19913;-75
2021/03/31 06:21:20;;;;;;;;;;;18.30;59.50;;;;;;5047020;28;19920;-76
2021/03/31 06:24:10;;;;;;;;;;;18.30;59.50;;;;;;5060237;28;20370;-75
2021/03/31 06:26:39;;;;;;;;;;;18.30;59.50;;;;;;5035362;28;19917;-75
2021/03/31 06:29:11;;;;;;;;;;;18.30;59.50;;;;;;5051094;28;19935;-76
2021/03/31 06:31:41;;;;;;;;;;;18.30;59.50;;;;;;5033268;28;19927;-75
2021/03/31 06:34:15;;;;;;;;;;;18.30;59.50;;;;;;5038406;28;20398;-76
2021/03/31 06:36:46;;;;;;;;;;;18.30;59.50;;;;;;5021916;28;20357;-76
2021/03/31 06:39:31;;;;;;;;;;;18.30;59.50;;;;;;5051955;28;19913;-76
2021/03/31 06:42:24;;;;;;;;;;;18.30;59.40;;;;;;5026816;28;19936;-76
2021/03/31 06:49:51;;;;;;;;;;;18.30;59.30;;;;;;5053366;28;19913;-76
2021/03/31 06:52:16;;;;;;;;;;;18.30;59.30;;;;;;5036299;28;20281;-76
2021/03/31 06:54:49;;;;;;;;;;;18.40;59.40;;;;;;5020834;28;20401;-76
2021/03/31 06:57:25;;;;;;;;;;;18.30;59.40;;;;;;5046131;28;20359;-76
2021/03/31 07:00:06;;;;;;;;;;;18.30;59.40;;;;;;5034365;28;19913;-76
2021/03/31 07:02:33;;;;;;;;;;;18.40;59.40;;;;;;5067210;28;19963;-76
2021/03/31 07:04:59;;;;;;;;;;;18.30;59.30;;;;;;5024798;28;20350;-76
2021/03/31 07:07:32;;;;;;;;;;;18.40;59.30;;;;;;5047030;28;19920;-76
2021/03/31 07:10:01;;;;;;;;;;;18.40;59.30;;;;;;5035773;28;19913;-76
2021/03/31 07:12:26;;;;;;;;;;;18.40;59.30;;;;;;5035235;28;19920;-76
2021/03/31 07:14:52;;;;;;;;;;;18.40;59.20;;;;;;5047400;28;19916;-76
2021/03/31 07:17:23;;;;;;;;;;;18.40;59.20;;;;;;5053179;28;20339;-75
2021/03/31 07:19:50;;;;;;;;;;;18.40;59.20;;;;;;5018670;28;20271;-76
2021/03/31 07:22:15;;;;;;;;;;;18.40;59.20;;;;;;5035502;28;20023;-76
2021/03/31 07:24:41;;;;;;;;;;;18.40;59.20;;;;;;5026911;28;20504;-76
2021/03/31 07:27:07;;;;;;;;;;;18.40;59.10;;;;;;5034635;28;19975;-75
2021/03/31 07:29:33;;;;;;;;;;;18.40;59.10;;;;;;5045028;28;19992;-76
2021/03/31 07:31:59;;;;;;;;;;;18.50;59.10;;;;;;5026888;28;20343;-75
2021/03/31 07:34:26;;;;;;;;;;;18.50;59.10;;;;;;5044130;28;19923;-76
2021/03/31 07:36:52;;;;;;;;;;;18.50;59.10;;;;;;5035872;28;19995;-76
2021/03/31 07:39:18;;;;;;;;;;;18.50;59.10;;;;;;5046462;28;20008;-76
2021/03/31 07:41:44;;;;;;;;;;;18.40;59.10;;;;;;5026287;28;19921;-75
2021/03/31 07:44:30;;;;;;;;;;;18.50;59.10;;;;;;5046805;28;19990;-76
2021/03/31 07:46:56;;;;;;;;;;;18.50;59.10;;;;;;5064800;28;19921;-76
2021/03/31 07:49:23;;;;;;;;;;;18.40;59.00;;;;;;5051019;28;19912;-77
2021/03/31 07:51:55;;;;;;;;;;;18.50;59.00;;;;;;5034358;28;20003;-76
2021/03/31 07:54:21;;;;;;;;;;;18.50;59.00;;;;;;5035031;28;19917;-76
2021/03/31 07:56:46;;;;;;;;;;;18.50;59.00;;;;;;5035055;28;20285;-77
2021/03/31 07:59:14;;;;;;;;;;;18.50;58.90;;;;;;5031264;28;19924;-76
2021/03/31 08:01:40;;;;;;;;;;;18.50;58.90;;;;;;5052143;28;20231;-76
2021/03/31 08:04:06;;;;;;;;;;;18.50;58.90;;;;;;5061689;28;20433;-76
2021/03/31 08:06:32;;;;;;;;;;;18.50;58.90;;;;;;5046116;28;19913;-77
2021/03/31 08:08:59;;;;;;;;;;;18.50;58.90;;;;;;5050165;28;20253;-76
2021/03/31 08:11:40;;;;;;;;;;;18.60;58.80;;;;;;5034544;28;19913;-76
2021/03/31 08:14:07;;;;;;;;;;;18.60;58.80;;;;;;5060853;28;19928;-77
2021/03/31 08:16:37;;;;;;;;;;;18.60;58.80;;;;;;5049701;28;20313;-78
2021/03/31 08:19:08;;;;;;;;;;;18.60;58.70;;;;;;5048251;28;19959;-75
2021/03/31 08:21:36;;;;;;;;;;;18.60;58.70;;;;;;5033880;28;20289;-75
2021/03/31 08:24:03;;;;;;;;;;;18.50;58.70;;;;;;5045688;28;20357;-74
2021/03/31 08:26:48;;;;;;;;;;;18.60;58.70;;;;;;5030702;28;19913;-74
2021/03/31 08:29:17;;;;;;;;;;;18.60;58.70;;;;;;5032525;28;20115;-74
2021/03/31 08:31:43;;;;;;;;;;;18.70;58.60;;;;;;5067628;28;19913;-74
2021/03/31 08:34:10;;;;;;;;;;;18.60;58.60;;;;;;5056988;28;20282;-77
2021/03/31 08:36:36;;;;;;;;;;;18.60;58.60;;;;;;5032323;28;19920;-77
2021/03/31 08:39:03;;;;;;;;;;;18.60;58.60;;;;;;5036707;28;19966;-74
2021/03/31 08:41:29;;;;;;;;;;;18.60;58.60;;;;;;5047298;28;19952;-74
2021/03/31 08:44:14;;;;;;;;;;;18.70;58.50;;;;;;5050749;28;19948;-75
2021/03/31 08:46:40;;;;;;;;;;;18.60;58.50;;;;;;5062879;28;19919;-74
2021/03/31 08:49:06;;;;;;;;;;;18.70;58.50;;;;;;5031428;28;19923;-74
2021/03/31 08:51:48;;;;;;;;;;;18.70;58.50;;;;;;5047819;28;19913;-75
2021/03/31 08:54:14;;;;;;;;;;;18.70;58.50;;;;;;5029719;28;20273;-74
2021/03/31 08:56:40;;;;;;;;;;;18.70;58.40;;;;;;5031891;28;20004;-75
2021/03/31 08:59:05;;;;;;;;;;;18.70;58.40;;;;;;5026720;28;19917;-76
2021/03/31 09:01:31;;;;;;;;;;;18.70;58.40;;;;;;5049462;28;19966;-75
2021/03/31 09:04:19;;;;;;;;;;;18.70;58.40;;;;;;5031778;28;19952;-75
2021/03/31 09:06:45;;;;;;;;;;;18.80;58.30;;;;;;5047301;28;20008;-74
2021/03/31 09:09:10;;;;;;;;;;;18.70;58.30;;;;;;5049819;28;20027;-75
2021/03/31 09:11:36;;;;;;;;;;;18.80;58.30;;;;;;5051066;28;19916;-75
2021/03/31 09:14:14;;;;;;;;;;;18.80;58.30;;;;;;5050180;28;19924;-74
2021/03/31 09:16:54;;;;;;;;;;;18.70;58.30;;;;;;5036241;28;19916;-74
2021/03/31 09:19:25;;;;;;;;;;;18.70;58.20;;;;;;5043871;28;20397;-76
2021/03/31 09:21:50;;;;;;;;;;;18.80;58.20;;;;;;5049140;28;19970;-75
2021/03/31 09:24:16;;;;;;;;;;;18.80;58.20;;;;;;5043220;28;19917;-76
2021/03/31 09:26:53;;;;;;;;;;;18.80;58.10;;;;;;5032543;28;19913;-76
2021/03/31 09:29:19;;;;;;;;;;;18.80;58.10;;;;;;5029017;28;19917;-75
2021/03/31 09:31:46;;;;;;;;;;;18.80;58.10;;;;;;5045223;28;19920;-76
2021/03/31 09:34:11;;;;;;;;;;;18.80;58.10;;;;;;5049520;28;19983;-77
2021/03/31 09:36:47;;;;;;;;;;;18.80;58.10;;;;;;5028663;28;19917;-76
2021/03/31 09:39:13;;;;;;;;;;;18.80;58.00;;;;;;5030365;28;20259;-76
2021/03/31 09:41:41;;;;;;;;;;;18.80;58.00;;;;;;5048546;28;19928;-76
2021/03/31 09:44:06;;;;;;;;;;;18.80;58.00;;;;;;5034586;28;19916;-76
2021/03/31 09:46:32;;;;;;;;;;;18.80;58.00;;;;;;5048523;28;19917;-76
2021/03/31 09:48:57;;;;;;;;;;;18.80;58.00;;;;;;5044637;28;19920;-76
2021/03/31 09:51:23;;;;;;;;;;;18.80;57.90;;;;;;5047990;28;20067;-76
2021/03/31 09:53:49;;;;;;;;;;;18.80;57.90;;;;;;5045223;28;20503;-76
2021/03/31 09:56:20;;;;;;;;;;;18.80;57.90;;;;;;5066529;28;19960;-76
2021/03/31 09:58:47;;;;;;;;;;;18.80;57.90;;;;;;5033509;28;20167;-77
2021/03/31 10:01:22;;;;;;;;;;;18.80;57.90;;;;;;5047630;28;20019;-76
2021/03/31 10:03:47;;;;;;;;;;;18.80;57.90;;;;;;5048121;28;20007;-77
2021/03/31 10:06:17;;;;;;;;;;;18.80;57.80;;;;;;5054127;28;20382;-76
2021/03/31 10:08:42;;;;;;;;;;;18.80;57.90;;;;;;5047898;28;19959;-76
2021/03/31 10:11:23;;;;;;;;;;;18.80;57.80;;;;;;5048024;28;19916;-75
2021/03/31 10:13:48;;;;;;;;;;;18.80;57.80;;;;;;5047864;28;19925;-76
2021/03/31 10:16:14;;;;;;;;;;;18.90;57.80;;;;;;5065583;28;19917;-75
2021/03/31 10:18:39;;;;;;;;;;;18.90;57.70;;;;;;5049494;28;20378;-75
2021/03/31 10:21:06;;;;;;;;;;;18.90;57.70;;;;;;5053364;28;19982;-75
2021/03/31 10:23:35;;;;;;;;;;;18.90;57.70;;;;;;5044031;28;20376;-76
2021/03/31 10:26:20;;;;;;;;;;;18.90;57.70;;;;;;5032553;28;19913;-75
2021/03/31 10:28:47;;;;;;;;;;;18.90;57.70;;;;;;5050775;28;19917;-75
2021/03/31 10:31:29;;;;;;;;;;;18.90;57.70;;;;;;5026203;28;19923;-76
2021/03/31 10:33:56;;;;;;;;;;;18.90;57.70;;;;;;5050193;28;20365;-75
2021/03/31 10:49:57;;;;;;;;;;;19.00;57.50;;;;;;5053790;28;20235;-76
2021/03/31 10:52:25;;;;;;;;;;;19.00;57.50;;;;;;5018347;28;20354;-76
2021/03/31 10:54:51;;;;;;;;;;;19.00;57.50;;;;;;5043785;28;19917;-77
2021/03/31 10:57:17;;;;;;;;;;;19.00;57.50;;;;;;5018732;28;20252;-76
2021/03/31 10:59:43;;;;;;;;;;;19.00;57.50;;;;;;5045525;28;20370;-75
2021/03/31 11:02:09;;;;;;;;;;;19.00;57.50;;;;;;5050180;28;19908;-75
2021/03/31 11:04:35;;;;;;;;;;;19.00;57.40;;;;;;5050718;28;19913;-76
2021/03/31 11:07:01;;;;;;;;;;;19.00;57.50;;;;;;5059016;28;19920;-75
2021/03/31 11:09:28;;;;;;;;;;;19.00;57.40;;;;;;5052855;28;20270;-75
2021/03/31 11:11:54;;;;;;;;;;;19.00;57.40;;;;;;5050679;28;19912;-75
2021/03/31 11:14:20;;;;;;;;;;;19.00;57.40;;;;;;5036827;28;19917;-75
2021/03/31 11:16:54;;;;;;;;;;;19.00;57.40;;;;;;5053243;28;19982;-75
2021/03/31 11:27:09;;;;;;;;;;;19.00;57.30;;;;;;5035843;28;20008;-75
2021/03/31 11:29:35;;;;;;;;;;;19.00;57.30;;;;;;5018314;28;19992;-75
2021/03/31 11:32:01;;;;;;;;;;;19.00;57.30;;;;;;5050613;28;19995;-75
2021/03/31 11:34:26;;;;;;;;;;;19.10;57.30;;;;;;5025587;28;19924;-75
2021/03/31 11:36:53;;;;;;;;;;;19.00;57.30;;;;;;5040530;28;19917;-75
2021/03/31 11:39:19;;;;;;;;;;;19.10;57.30;;;;;;5049390;28;19932;-75
2021/03/31 11:41:45;;;;;;;;;;;19.10;57.30;;;;;;5037309;28;20362;-75
2021/03/31 11:44:10;;;;;;;;;;;19.10;57.20;;;;;;5022302;28;20411;-75
2021/03/31 11:46:36;;;;;;;;;;;19.10;57.20;;;;;;5052243;28;20007;-75
2021/03/31 11:49:01;;;;;;;;;;;19.10;57.20;;;;;;5050401;28;19920;-78
2021/03/31 11:51:27;;;;;;;;;;;19.10;57.20;;;;;;5033734;28;20343;-75
2021/03/31 11:53:52;;;;;;;;;;;19.10;57.20;;;;;;5027933;28;20317;-75
2021/03/31 11:56:18;;;;;;;;;;;19.10;57.20;;;;;;5050734;28;19917;-76
2021/03/31 11:58:43;;;;;;;;;;;19.10;57.20;;;;;;5034941;28;20274;-75
2021/03/31 12:01:09;;;;;;;;;;;19.10;57.20;;;;;;5034719;28;19912;-76
2021/03/31 12:03:34;;;;;;;;;;;19.10;57.10;;;;;;5033522;28;19912;-75
2021/03/31 12:06:00;;;;;;;;;;;19.10;57.10;;;;;;5036130;28;20385;-73
2021/03/31 12:08:26;;;;;;;;;;;19.10;57.10;;;;;;5051322;28;20301;-76
2021/03/31 12:10:51;;;;;;;;;;;19.10;57.10;;;;;;5042914;28;20398;-74
2021/03/31 12:13:17;;;;;;;;;;;19.10;57.10;;;;;;5031182;28;20354;-74
2021/03/31 12:15:42;;;;;;;;;;;19.20;57.10;;;;;;5060644;28;20379;-74
2021/03/31 12:18:08;;;;;;;;;;;19.10;57.10;;;;;;5050385;28;19923;-74
2021/03/31 12:20:33;;;;;;;;;;;19.10;57.10;;;;;;5031938;28;19919;-75
2021/03/31 12:22:59;;;;;;;;;;;19.10;57.10;;;;;;5034319;28;19919;-75
2021/03/31 12:25:24;;;;;;;;;;;19.10;57.00;;;;;;5052033;28;20004;-75
2021/03/31 12:27:54;;;;;;;;;;;19.20;57.00;;;;;;5045743;28;19944;-75
2021/03/31 12:30:20;;;;;;;;;;;19.10;57.00;;;;;;5063585;28;20050;-75
2021/03/31 12:32:46;;;;;;;;;;;19.20;57.00;;;;;;5031533;28;20335;-76
2021/03/31 12:35:12;;;;;;;;;;;19.20;57.00;;;;;;5035679;28;19998;-77
2021/03/31 12:37:37;;;;;;;;;;;19.20;57.00;;;;;;5027093;28;20015;-76
2021/03/31 12:40:07;;;;;;;;;;;19.20;57.00;;;;;;5030553;28;20278;-76
2021/03/31 12:42:32;;;;;;;;;;;19.20;57.00;;;;;;5031934;28;19944;-75
2021/03/31 12:44:58;;;;;;;;;;;19.20;56.90;;;;;;5032136;28;20358;-75
2021/03/31 12:47:23;;;;;;;;;;;19.20;56.90;;;;;;5027161;28;20343;-75
2021/03/31 12:49:53;;;;;;;;;;;19.20;57.00;;;;;;5030389;28;19917;-75
2021/03/31 12:52:39;;;;;;;;;;;19.20;57.00;;;;;;5024482;28;19916;-75
2021/03/31 12:55:08;;;;;;;;;;;19.20;56.90;;;;;;5030410;28;19917;-76
2021/03/31 12:57:33;;;;;;;;;;;19.20;56.90;;;;;;5031235;28;19917;-75
2021/03/31 13:00:00;;;;;;;;;;;19.20;56.90;;;;;;5031453;28;20004;-74
2021/03/31 13:02:25;;;;;;;;;;;19.20;56.90;;;;;;5027393;28;20307;-76
2021/03/31 13:04:54;;;;;;;;;;;19.20;56.90;;;;;;5030112;28;19947;-76
2021/03/31 13:07:20;;;;;;;;;;;19.20;56.90;;;;;;5029348;28;20346;-76
2021/03/31 13:09:46;;;;;;;;;;;19.20;56.90;;;;;;5028385;28;19978;-76
2021/03/31 13:12:19;;;;;;;;;;;19.20;56.90;;;;;;5024262;28;20334;-75
2021/03/31 13:15:19;;;;;;;;;;;19.20;56.80;;;;;;5028373;28;19913;-75
2021/03/31 13:18:10;;;;;;;;;;;19.20;56.80;;;;;;5028597;28;19920;-75
2021/03/31 13:23:11;;;;;;;;;;;19.20;56.80;;;;;;5028407;28;19920;-75
2021/03/31 13:25:50;;;;;;;;;;;19.30;56.80;;;;;;5024324;28;19910;-75
2021/03/31 13:33:46;;;;;;;;;;;19.30;56.80;;;;;;5035662;28;19928;-75
2021/03/31 13:36:16;;;;;;;;;;;19.30;56.80;;;;;;5044360;28;19920;-76
2021/03/31 13:41:13;;;;;;;;;;;19.30;56.80;;;;;;5033873;28;19933;-77
2021/03/31 13:43:44;;;;;;;;;;;19.30;56.70;;;;;;5030189;28;19959;-76
2021/03/31 13:46:09;;;;;;;;;;;19.30;56.70;;;;;;5031380;28;19916;-75
2021/03/31 13:48:52;;;;;;;;;;;19.30;56.70;;;;;;5045745;28;19912;-75
2021/03/31 13:51:23;;;;;;;;;;;19.30;56.70;;;;;;5048187;28;19916;-77
2021/03/31 13:53:50;;;;;;;;;;;19.30;56.70;;;;;;5060230;28;19917;-75
2021/03/31 13:56:32;;;;;;;;;;;19.30;56.70;;;;;;5037927;28;20003;-75
2021/03/31 13:58:57;;;;;;;;;;;19.30;56.70;;;;;;5032888;28;19959;-76
2021/03/31 14:01:23;;;;;;;;;;;19.30;56.70;;;;;;5017017;28;19917;-75
2021/03/31 14:03:49;;;;;;;;;;;19.30;56.60;;;;;;5033538;28;19913;-75
2021/03/31 14:06:14;;;;;;;;;;;19.30;56.70;;;;;;5048736;28;19916;-75
2021/03/31 14:08:40;;;;;;;;;;;19.30;56.70;;;;;;5032473;28;19922;-76
2021/03/31 14:11:05;;;;;;;;;;;19.30;56.70;;;;;;5052366;28;19923;-75
2021/03/31 14:13:31;;;;;;;;;;;19.30;56.60;;;;;;5033968;28;19963;-75
2021/03/31 14:15:57;;;;;;;;;;;19.30;56.70;;;;;;5057835;28;20008;-75
2021/03/31 14:18:23;;;;;;;;;;;19.30;56.60;;;;;;5052339;28;20253;-75
2021/03/31 14:20:48;;;;;;;;;;;19.30;56.60;;;;;;5034783;28;19913;-75
2021/03/31 14:23:14;;;;;;;;;;;19.30;56.60;;;;;;5036327;28;19909;-75
2021/03/31 14:25:40;;;;;;;;;;;19.30;56.60;;;;;;5036723;28;19909;-75
2021/03/31 14:28:05;;;;;;;;;;;19.30;56.60;;;;;;5070532;28;19919;-76
2021/03/31 14:30:30;;;;;;;;;;;19.30;56.60;;;;;;5028813;28;19921;-75
2021/03/31 14:32:56;;;;;;;;;;;19.30;56.60;;;;;;5042277;28;19940;-75
2021/03/31 14:35:22;;;;;;;;;;;19.30;56.50;;;;;;5056485;28;19913;-77
2021/03/31 14:37:47;;;;;;;;;;;19.30;56.50;;;;;;5043181;28;19938;-77
2021/03/31 14:40:13;;;;;;;;;;;19.30;56.50;;;;;;5027855;28;20008;-75
2021/03/31 14:42:38;;;;;;;;;;;19.30;56.50;;;;;;5052535;28;19924;-75
2021/03/31 14:45:07;;;;;;;;;;;19.30;56.50;;;;;;5056964;28;20135;-75
2021/03/31 14:47:37;;;;;;;;;;;19.30;56.50;;;;;;5053784;28;19938;-76
2021/03/31 14:50:04;;;;;;;;;;;19.30;56.50;;;;;;5065238;28;20310;-77
2021/03/31 15:00:40;;;;;;;;;;;19.30;56.50;;;;;;5032867;28;19925;-76
2021/03/31 15:03:06;;;;;;;;;;;19.30;56.50;;;;;;5051159;28;19999;-76
2021/03/31 15:05:31;;;;;;;;;;;19.30;56.50;;;;;;5045280;28;19928;-77